createdAt,value
2023-05-08T00:00:06.146Z,39.80
2023-05-08T00:01:06.065Z,39.16
2023-05-08T00:02:06.126Z,39.96
2023-05-08T00:03:06.214Z,39.96
2023-05-08T00:04:06.387Z,39.48
2023-05-08T00:05:06.334Z,40.12
2023-05-08T00:06:06.324Z,39.48
2023-05-08T00:07:06.187Z,40.93
2023-05-08T00:08:06.293Z,39.96
2023-05-08T00:09:06.019Z,39.48
2023-05-08T00:10:06.017Z,39.48
2023-05-08T00:11:05.947Z,40.12
2023-05-08T00:12:06.016Z,40.44
2023-05-08T00:13:06.124Z,41.09
2023-05-08T00:14:05.989Z,41.25
2023-05-08T00:15:06.045Z,41.09
2023-05-08T00:16:05.963Z,39.96
2023-05-08T00:17:06.170Z,41.73
2023-05-08T00:18:05.963Z,41.73
2023-05-08T00:19:06.057Z,40.77
2023-05-08T00:20:06.015Z,39.80
2023-05-08T00:21:05.968Z,41.09
2023-05-08T00:22:05.871Z,40.28
2023-05-08T00:23:05.988Z,40.28
2023-05-08T00:24:05.896Z,39.96
2023-05-08T00:25:05.944Z,41.25
2023-05-08T00:26:06.037Z,46.89
2023-05-08T00:27:05.973Z,42.86
2023-05-08T00:28:05.795Z,41.89
2023-05-08T00:29:06.762Z,39.96
2023-05-08T00:30:05.898Z,43.34
2023-05-08T00:31:05.834Z,42.86
2023-05-08T00:32:05.906Z,42.54
2023-05-08T00:33:05.844Z,40.28
2023-05-08T00:34:05.936Z,40.12
2023-05-08T00:35:05.841Z,40.93
2023-05-08T00:36:05.932Z,40.77
2023-05-08T00:37:05.721Z,40.93
2023-05-08T00:38:05.755Z,41.73
2023-05-08T00:39:05.973Z,39.96
2023-05-08T00:40:06.148Z,40.28
2023-05-08T00:41:05.942Z,41.73
2023-05-08T00:42:05.662Z,40.93
2023-05-08T00:43:05.794Z,41.73
2023-05-08T00:44:06.011Z,43.34
2023-05-08T00:45:05.788Z,43.34
2023-05-08T00:46:05.696Z,39.64
2023-05-08T00:47:05.655Z,39.80
2023-05-08T00:48:05.800Z,41.25
2023-05-08T00:49:05.632Z,41.73
2023-05-08T00:50:05.727Z,43.18
2023-05-08T00:51:05.736Z,41.73
2023-05-08T00:52:05.709Z,45.28
2023-05-08T00:53:05.554Z,42.22
2023-05-08T00:54:05.781Z,41.89
2023-05-08T00:55:05.810Z,43.02
2023-05-08T00:56:05.501Z,40.44
2023-05-08T00:57:05.628Z,41.73
2023-05-08T00:58:05.510Z,40.28
2023-05-08T00:59:05.614Z,44.47
2023-05-08T01:00:05.458Z,42.22
2023-05-08T01:01:05.592Z,40.44
2023-05-08T01:02:05.526Z,39.80
2023-05-08T01:03:05.608Z,40.44
2023-05-08T01:04:05.375Z,41.09
2023-05-08T01:05:05.434Z,48.02
2023-05-08T01:06:05.339Z,43.83
2023-05-08T01:07:37.174Z,40.44
2023-05-08T01:08:05.237Z,43.67
2023-05-08T01:09:05.168Z,40.77
2023-05-08T01:10:05.173Z,41.73
2023-05-08T01:11:05.170Z,40.61
2023-05-08T01:12:05.133Z,41.25
2023-05-08T01:13:05.175Z,39.80
2023-05-08T01:14:05.111Z,39.80
2023-05-08T01:15:05.093Z,39.80
2023-05-08T01:16:05.128Z,40.61
2023-05-08T01:17:05.088Z,40.28
2023-05-08T01:18:05.126Z,41.41
2023-05-08T01:19:05.032Z,43.99
2023-05-08T01:20:05.056Z,40.44
2023-05-08T01:21:05.043Z,40.44
2023-05-08T01:22:05.044Z,40.28
2023-05-08T01:23:05.031Z,42.06
2023-05-08T01:24:05.009Z,44.79
2023-05-08T01:25:04.972Z,43.99
2023-05-08T01:26:04.969Z,40.93
2023-05-08T01:27:05.011Z,40.93
2023-05-08T01:28:04.945Z,40.28
2023-05-08T01:29:04.946Z,41.09
2023-05-08T01:30:04.950Z,41.09
2023-05-08T01:31:04.916Z,41.09
2023-05-08T01:32:04.898Z,45.44
2023-05-08T01:33:04.990Z,43.67
2023-05-08T01:34:04.945Z,45.44
2023-05-08T01:35:04.851Z,41.09
2023-05-08T01:36:04.876Z,40.93
2023-05-08T01:37:04.828Z,46.08
2023-05-08T01:38:04.862Z,42.54
2023-05-08T01:39:04.857Z,41.73
2023-05-08T01:40:04.822Z,40.77
2023-05-08T01:41:04.807Z,41.09
2023-05-08T01:42:04.827Z,40.77
2023-05-08T01:43:04.815Z,41.09
2023-05-08T01:44:04.743Z,40.28
2023-05-08T01:45:04.816Z,40.28
2023-05-08T01:46:04.756Z,45.76
2023-05-08T01:47:04.814Z,45.12
2023-05-08T01:48:04.751Z,44.79
2023-05-08T01:49:04.746Z,44.15
2023-05-08T01:50:04.723Z,43.83
2023-05-08T01:51:04.672Z,40.77
2023-05-08T01:52:04.740Z,43.18
2023-05-08T01:53:04.651Z,42.70
2023-05-08T01:54:04.663Z,44.47
2023-05-08T01:55:04.666Z,44.15
2023-05-08T01:56:04.645Z,43.34
2023-05-08T01:57:04.596Z,43.18
2023-05-08T01:58:04.608Z,40.77
2023-05-08T01:59:04.634Z,43.83
2023-05-08T02:00:04.566Z,43.18
2023-05-08T02:01:04.656Z,43.99
2023-05-08T02:02:04.610Z,41.89
2023-05-08T02:03:04.588Z,44.79
2023-05-08T02:04:04.598Z,40.44
2023-05-08T02:05:04.544Z,40.77
2023-05-08T02:06:04.521Z,41.73
2023-05-08T02:07:04.506Z,43.02
2023-05-08T02:08:04.513Z,42.54
2023-05-08T02:09:04.500Z,41.89
2023-05-08T02:10:04.480Z,42.22
2023-05-08T02:11:04.475Z,41.09
2023-05-08T02:12:04.463Z,41.73
2023-05-08T02:13:04.518Z,43.02
2023-05-08T02:14:04.444Z,43.51
2023-05-08T02:15:04.481Z,44.15
2023-05-08T02:16:04.438Z,42.70
2023-05-08T02:17:04.574Z,40.77
2023-05-08T02:18:04.427Z,42.06
2023-05-08T02:19:04.410Z,42.70
2023-05-08T02:20:04.366Z,44.96
2023-05-08T02:21:04.340Z,45.76
2023-05-08T02:22:04.351Z,44.47
2023-05-08T02:23:04.347Z,41.09
2023-05-08T02:24:04.324Z,44.79
2023-05-08T02:25:04.328Z,48.98
2023-05-08T02:26:04.302Z,47.05
2023-05-08T02:27:04.262Z,42.22
2023-05-08T02:28:04.418Z,42.06
2023-05-08T02:29:04.306Z,42.06
2023-05-08T02:30:04.257Z,45.12
2023-05-08T02:31:04.242Z,42.70
2023-05-08T02:32:04.318Z,41.25
2023-05-08T02:33:04.333Z,42.06
2023-05-08T02:34:04.210Z,41.41
2023-05-08T02:35:04.211Z,43.99
2023-05-08T02:36:04.191Z,45.28
2023-05-08T02:37:04.150Z,45.28
2023-05-08T02:38:04.150Z,42.70
2023-05-08T02:39:04.190Z,44.96
2023-05-08T02:40:04.167Z,42.70
2023-05-08T02:41:04.108Z,40.61
2023-05-08T02:42:04.102Z,41.25
2023-05-08T02:43:05.109Z,45.44
2023-05-08T02:44:04.107Z,43.34
2023-05-08T02:45:04.081Z,42.38
2023-05-08T02:46:04.087Z,42.22
2023-05-08T02:47:05.656Z,46.08
2023-05-08T02:48:04.021Z,42.86
2023-05-08T02:49:04.039Z,45.76
2023-05-08T02:50:04.028Z,42.22
2023-05-08T02:51:04.001Z,44.96
2023-05-08T02:52:03.989Z,43.67
2023-05-08T02:53:05.005Z,42.38
2023-05-08T02:54:03.969Z,46.41
2023-05-08T02:55:03.957Z,44.31
2023-05-08T02:56:03.965Z,44.79
2023-05-08T02:57:03.914Z,44.47
2023-05-08T02:58:03.939Z,46.89
2023-05-08T02:59:03.933Z,43.51
2023-05-08T03:00:03.900Z,43.99
2023-05-08T03:01:03.897Z,48.98
2023-05-08T03:02:03.891Z,45.60
2023-05-08T03:03:03.943Z,44.31
2023-05-08T03:04:03.832Z,44.15
2023-05-08T03:05:03.864Z,44.47
2023-05-08T03:06:03.838Z,48.50
2023-05-08T03:07:03.804Z,48.02
2023-05-08T03:08:03.802Z,46.89
2023-05-08T03:09:03.837Z,45.44
2023-05-08T03:10:03.813Z,45.12
2023-05-08T03:11:03.762Z,49.31
2023-05-08T03:12:03.788Z,50.76
2023-05-08T03:13:03.791Z,49.47
2023-05-08T03:14:03.743Z,48.98
2023-05-08T03:15:03.727Z,51.40
2023-05-08T03:16:03.721Z,47.53
2023-05-08T03:17:03.720Z,51.88
2023-05-08T03:18:03.727Z,51.08
2023-05-08T03:19:03.685Z,53.33
2023-05-08T03:20:03.757Z,52.21
2023-05-08T03:21:03.659Z,48.02
2023-05-08T03:22:03.667Z,49.63
2023-05-08T03:23:03.654Z,48.34
2023-05-08T03:24:03.630Z,50.27
2023-05-08T03:25:03.617Z,51.56
2023-05-08T03:26:03.602Z,50.76
2023-05-08T03:27:03.631Z,51.56
2023-05-08T03:28:03.605Z,51.40
2023-05-08T03:29:03.588Z,51.56
2023-05-08T03:30:03.567Z,52.69
2023-05-08T03:31:03.569Z,53.82
2023-05-08T03:32:03.550Z,50.76
2023-05-08T03:33:03.565Z,53.33
2023-05-08T03:34:03.520Z,53.01
2023-05-08T03:35:03.507Z,52.85
2023-05-08T03:36:03.520Z,53.50
2023-05-08T03:37:03.481Z,53.17
2023-05-08T03:38:03.477Z,54.30
2023-05-08T03:39:03.475Z,54.95
2023-05-08T03:40:03.455Z,50.76
2023-05-08T03:41:03.430Z,48.66
2023-05-08T03:42:03.445Z,52.21
2023-05-08T03:43:03.423Z,52.05
2023-05-08T03:44:03.435Z,51.40
2023-05-08T03:45:03.391Z,52.37
2023-05-08T03:46:03.377Z,53.98
2023-05-08T03:47:03.470Z,52.53
2023-05-08T03:48:03.434Z,52.85
2023-05-08T03:49:03.325Z,53.33
2023-05-08T03:50:03.354Z,51.24
2023-05-08T03:51:03.350Z,51.08
2023-05-08T03:52:03.304Z,52.37
2023-05-08T03:53:03.329Z,53.01
2023-05-08T03:54:03.279Z,52.05
2023-05-08T03:55:03.287Z,50.43
2023-05-08T03:56:03.258Z,53.33
2023-05-08T03:57:03.259Z,50.43
2023-05-08T03:58:03.259Z,52.21
2023-05-08T03:59:03.216Z,52.53
2023-05-08T04:00:03.261Z,52.21
2023-05-08T04:01:03.207Z,50.92
2023-05-08T04:02:03.217Z,51.40
2023-05-08T04:03:03.342Z,51.24
2023-05-08T04:04:03.257Z,52.69
2023-05-08T04:05:03.150Z,52.05
2023-05-08T04:06:03.151Z,53.01
2023-05-08T04:07:03.172Z,52.69
2023-05-08T04:08:03.110Z,50.76
2023-05-08T04:09:04.126Z,48.98
2023-05-08T04:10:03.127Z,52.21
2023-05-08T04:11:03.080Z,52.21
2023-05-08T04:12:03.079Z,51.24
2023-05-08T04:13:03.184Z,52.69
2023-05-08T04:14:03.087Z,52.37
2023-05-08T04:15:03.032Z,49.95
2023-05-08T04:16:03.043Z,49.95
2023-05-08T04:17:03.251Z,51.72
2023-05-08T04:18:03.083Z,53.50
2023-05-08T04:19:03.051Z,52.53
2023-05-08T04:20:03.005Z,51.72
2023-05-08T04:21:03.011Z,53.33
2023-05-08T04:22:02.981Z,53.01
2023-05-08T04:23:02.949Z,53.50
2023-05-08T04:24:02.989Z,51.08
2023-05-08T04:25:02.928Z,50.76
2023-05-08T04:26:04.138Z,52.37
2023-05-08T04:27:02.957Z,53.33
2023-05-08T04:28:02.911Z,52.69
2023-05-08T04:29:02.860Z,51.40
2023-05-08T04:30:02.875Z,49.15
2023-05-08T04:31:02.876Z,53.82
2023-05-08T04:32:02.892Z,53.33
2023-05-08T04:33:02.909Z,51.72
2023-05-08T04:34:02.837Z,53.01
2023-05-08T04:35:02.800Z,54.95
2023-05-08T04:36:02.821Z,52.21
2023-05-08T04:37:02.839Z,53.66
2023-05-08T04:38:02.793Z,52.69
2023-05-08T04:39:02.769Z,54.30
2023-05-08T04:40:02.780Z,53.66
2023-05-08T04:41:02.790Z,55.91
2023-05-08T04:42:02.775Z,53.17
2023-05-08T04:43:02.751Z,53.01
2023-05-08T04:44:02.734Z,52.85
2023-05-08T04:45:02.693Z,52.21
2023-05-08T04:46:02.720Z,54.14
2023-05-08T04:47:02.707Z,51.40
2023-05-08T04:48:02.705Z,54.62
2023-05-08T04:49:02.647Z,52.69
2023-05-08T04:50:03.299Z,51.56
2023-05-08T04:51:02.644Z,52.05
2023-05-08T04:52:02.631Z,51.72
2023-05-08T04:53:02.608Z,51.24
2023-05-08T04:54:02.605Z,52.53
2023-05-08T04:55:02.622Z,49.47
2023-05-08T04:56:02.574Z,53.50
2023-05-08T04:57:02.584Z,52.05
2023-05-08T04:58:02.562Z,53.01
2023-05-08T04:59:02.534Z,49.95
2023-05-08T05:00:02.545Z,47.86
2023-05-08T05:01:02.566Z,51.08
2023-05-08T05:02:02.573Z,51.72
2023-05-08T05:03:02.484Z,53.01
2023-05-08T05:04:02.551Z,48.82
2023-05-08T05:05:02.482Z,50.92
2023-05-08T05:06:02.462Z,50.76
2023-05-08T05:07:02.482Z,52.53
2023-05-08T05:08:02.440Z,52.53
2023-05-08T05:09:02.435Z,49.63
2023-05-08T05:10:02.419Z,53.50
2023-05-08T05:11:02.448Z,52.37
2023-05-08T05:12:02.373Z,54.46
2023-05-08T05:13:02.411Z,52.53
2023-05-08T05:14:02.403Z,53.01
2023-05-08T05:15:02.358Z,54.14
2023-05-08T05:16:02.401Z,55.91
2023-05-08T05:17:02.376Z,51.56
2023-05-08T05:18:02.364Z,51.40
2023-05-08T05:19:02.304Z,54.46
2023-05-08T05:20:02.309Z,53.66
2023-05-08T05:21:02.324Z,51.08
2023-05-08T05:22:02.280Z,53.66
2023-05-08T05:23:02.241Z,54.14
2023-05-08T05:24:02.270Z,51.56
2023-05-08T05:25:02.272Z,53.50
2023-05-08T05:26:02.247Z,52.85
2023-05-08T05:27:02.212Z,53.33
2023-05-08T05:28:02.239Z,56.07
2023-05-08T05:29:02.188Z,54.95
2023-05-08T05:30:02.185Z,54.62
2023-05-08T05:31:02.235Z,52.05
2023-05-08T05:32:02.279Z,52.37
2023-05-08T05:33:02.291Z,52.37
2023-05-08T05:34:02.142Z,52.05
2023-05-08T05:35:02.122Z,52.85
2023-05-08T05:36:02.104Z,49.47
2023-05-08T05:37:02.138Z,51.56
2023-05-08T05:38:02.116Z,48.82
2023-05-08T05:39:02.061Z,51.08
2023-05-08T05:40:02.125Z,52.53
2023-05-08T05:41:02.094Z,52.53
2023-05-08T05:42:02.055Z,51.24
2023-05-08T05:43:02.005Z,52.05
2023-05-08T05:44:02.042Z,52.37
2023-05-08T05:45:02.092Z,55.43
2023-05-08T05:46:02.057Z,53.82
2023-05-08T05:47:02.014Z,52.05
2023-05-08T05:48:02.061Z,52.05
2023-05-08T05:49:01.948Z,53.50
2023-05-08T05:50:01.947Z,53.33
2023-05-08T05:51:01.990Z,48.66
2023-05-08T05:52:01.905Z,50.60
2023-05-08T05:53:01.950Z,51.40
2023-05-08T05:54:01.922Z,53.01
2023-05-08T05:55:01.895Z,52.21
2023-05-08T05:56:01.876Z,49.15
2023-05-08T05:57:01.892Z,52.53
2023-05-08T05:58:01.885Z,52.37
2023-05-08T05:59:01.859Z,49.63
2023-05-08T06:00:01.870Z,50.11
2023-05-08T06:01:01.830Z,49.79
2023-05-08T06:02:01.893Z,50.11
2023-05-08T06:03:01.988Z,50.43
2023-05-08T06:04:01.953Z,53.33
2023-05-08T06:05:01.772Z,52.21
2023-05-08T06:06:01.783Z,51.08
2023-05-08T06:07:01.780Z,46.89
2023-05-08T06:08:01.756Z,49.31
2023-05-08T06:09:01.782Z,47.05
2023-05-08T06:10:01.724Z,50.92
2023-05-08T06:11:01.701Z,50.27
2023-05-08T06:12:01.739Z,48.02
2023-05-08T06:13:01.766Z,51.24
2023-05-08T06:14:01.702Z,50.27
2023-05-08T06:15:01.677Z,51.72
2023-05-08T06:16:01.705Z,49.15
2023-05-08T06:17:01.676Z,50.43
2023-05-08T06:18:01.675Z,51.72
2023-05-08T06:19:01.680Z,49.15
2023-05-08T06:20:01.626Z,50.27
2023-05-08T06:21:01.614Z,50.60
2023-05-08T06:22:01.615Z,48.98
2023-05-08T06:23:01.626Z,48.82
2023-05-08T06:24:01.603Z,51.40
2023-05-08T06:25:01.553Z,49.63
2023-05-08T06:26:01.566Z,53.66
2023-05-08T06:27:01.576Z,49.31
2023-05-08T06:28:01.545Z,50.76
2023-05-08T06:29:01.529Z,50.76
2023-05-08T06:30:01.520Z,48.82
2023-05-08T06:31:01.598Z,51.08
2023-05-08T06:32:01.503Z,50.60
2023-05-08T06:33:01.637Z,51.40
2023-05-08T06:34:01.484Z,51.08
2023-05-08T06:35:01.517Z,50.92
2023-05-08T06:36:01.470Z,48.66
2023-05-08T06:37:01.458Z,51.24
2023-05-08T06:38:01.441Z,52.69
2023-05-08T06:39:01.448Z,51.08
2023-05-08T06:40:11.653Z,50.92
2023-05-08T06:41:03.384Z,49.95
2023-05-08T06:42:01.406Z,52.37
2023-05-08T06:43:01.411Z,48.50
2023-05-08T06:44:01.599Z,51.40
2023-05-08T06:45:01.330Z,51.88
2023-05-08T06:46:01.418Z,47.05
2023-05-08T06:47:01.366Z,49.63
2023-05-08T06:48:01.427Z,50.43
2023-05-08T06:49:01.354Z,48.02
2023-05-08T06:50:01.358Z,49.15
2023-05-08T06:51:01.270Z,49.47
2023-05-08T06:52:01.288Z,46.73
2023-05-08T06:53:01.298Z,50.92
2023-05-08T06:54:01.251Z,50.92
2023-05-08T06:55:01.267Z,52.37
2023-05-08T06:56:01.272Z,49.31
2023-05-08T06:57:01.242Z,48.66
2023-05-08T06:58:01.225Z,47.86
2023-05-08T06:59:08.234Z,50.11
2023-05-08T07:00:03.204Z,49.95
2023-05-08T07:01:01.199Z,50.60
2023-05-08T07:02:01.303Z,49.63
2023-05-08T07:03:01.184Z,49.95
2023-05-08T07:04:01.166Z,46.08
2023-05-08T07:05:01.185Z,49.95
2023-05-08T07:06:01.147Z,46.41
2023-05-08T07:07:01.128Z,47.86
2023-05-08T07:08:33.057Z,50.27
2023-05-08T07:09:01.096Z,45.76
2023-05-08T07:10:01.096Z,51.24
2023-05-08T07:11:01.100Z,48.98
2023-05-08T07:12:01.076Z,48.82
2023-05-08T07:13:01.145Z,49.79
2023-05-08T07:14:01.065Z,51.40
2023-05-08T07:15:07.823Z,51.24
2023-05-08T07:16:03.050Z,49.31
2023-05-08T07:17:01.006Z,49.79
2023-05-08T07:18:01.123Z,52.69
2023-05-08T07:19:00.981Z,46.08
2023-05-08T07:20:01.004Z,49.47
2023-05-08T07:21:00.972Z,48.82
2023-05-08T07:22:00.986Z,50.11
2023-05-08T07:23:00.968Z,50.43
2023-05-08T07:24:00.920Z,50.27
2023-05-08T07:25:00.935Z,51.24
2023-05-08T07:26:00.922Z,49.47
2023-05-08T07:27:00.929Z,49.95
2023-05-08T07:28:01.441Z,49.63
2023-05-08T07:29:01.878Z,49.63
2023-05-08T07:30:00.878Z,50.60
2023-05-08T07:31:00.873Z,51.88
2023-05-08T07:32:00.923Z,51.88
2023-05-08T07:33:00.846Z,50.76
2023-05-08T07:34:00.831Z,51.40
2023-05-08T07:35:00.831Z,51.56
2023-05-08T07:36:00.831Z,53.82
2023-05-08T07:37:00.782Z,48.18
2023-05-08T07:38:00.788Z,46.25
2023-05-08T07:39:00.802Z,47.05
2023-05-08T07:40:00.777Z,45.28
2023-05-08T07:41:00.796Z,50.76
2023-05-08T07:42:00.749Z,51.24
2023-05-08T07:43:00.783Z,50.92
2023-05-08T07:44:00.721Z,49.63
2023-05-08T07:45:00.704Z,48.50
2023-05-08T07:46:33.343Z,49.79
2023-05-08T07:47:00.720Z,54.95
2023-05-08T07:48:00.763Z,49.31
2023-05-08T07:49:00.673Z,50.43
2023-05-08T07:50:00.675Z,51.08
2023-05-08T07:51:00.653Z,48.82
2023-05-08T07:52:00.666Z,48.98
2023-05-08T07:53:00.695Z,48.18
2023-05-08T07:54:00.628Z,47.53
2023-05-08T07:55:00.662Z,49.31
2023-05-08T07:56:00.660Z,47.70
2023-05-08T07:57:00.605Z,49.63
2023-05-08T07:58:00.581Z,50.11
2023-05-08T07:59:01.661Z,48.82
2023-05-08T08:00:35.891Z,49.63
2023-05-08T08:01:00.562Z,49.47
2023-05-08T08:02:00.592Z,49.79
2023-05-08T08:03:00.633Z,48.34
2023-05-08T08:04:00.665Z,49.15
2023-05-08T08:05:00.517Z,50.27
2023-05-08T08:06:01.539Z,50.11
2023-05-08T08:07:01.352Z,49.15
2023-05-08T08:08:00.521Z,48.18
2023-05-08T08:09:00.574Z,47.86
2023-05-08T08:10:01.522Z,46.25
2023-05-08T08:11:01.713Z,49.79
2023-05-08T08:12:01.501Z,49.63
2023-05-08T08:13:00.476Z,49.63
2023-05-08T08:14:00.440Z,48.50
2023-05-08T08:15:00.465Z,50.11
2023-05-08T08:16:00.469Z,50.43
2023-05-08T08:17:00.404Z,47.37
2023-05-08T08:18:00.436Z,52.05
2023-05-08T08:19:00.385Z,45.92
2023-05-08T08:20:00.394Z,50.43
2023-05-08T08:21:00.423Z,52.05
2023-05-08T08:22:00.351Z,50.11
2023-05-08T08:23:00.337Z,53.01
2023-05-08T08:24:00.355Z,49.95
2023-05-08T08:25:00.427Z,50.60
2023-05-08T08:26:00.274Z,50.27
2023-05-08T08:27:00.310Z,49.15
2023-05-08T08:28:00.401Z,49.15
2023-05-08T08:29:00.266Z,50.60
2023-05-08T08:30:15.713Z,50.27
2023-05-08T08:31:02.296Z,48.34
2023-05-08T08:32:00.229Z,49.15
2023-05-08T08:33:00.254Z,48.98
2023-05-08T08:34:00.233Z,51.08
2023-05-08T08:35:00.195Z,48.82
2023-05-08T08:36:00.271Z,50.92
2023-05-08T08:37:00.220Z,50.27
2023-05-08T08:38:00.238Z,53.33
2023-05-08T08:39:00.150Z,52.05
2023-05-08T08:40:00.252Z,53.17
2023-05-08T08:41:00.259Z,49.63
2023-05-08T08:42:00.217Z,51.88
2023-05-08T08:43:00.218Z,52.53
2023-05-08T08:44:00.176Z,52.05
2023-05-08T08:45:00.152Z,50.92
2023-05-08T08:46:00.181Z,50.11
2023-05-08T08:47:00.179Z,51.56
2023-05-08T08:48:00.289Z,50.43
2023-05-08T08:49:00.218Z,52.53
2023-05-08T08:50:00.067Z,53.17
2023-05-08T08:51:00.059Z,51.72
2023-05-08T08:52:00.114Z,50.43
2023-05-08T08:53:00.038Z,54.14
2023-05-08T08:54:00.022Z,53.17
2023-05-08T08:55:00.020Z,51.72
2023-05-08T08:55:59.981Z,51.40
2023-05-08T08:57:00.075Z,52.05
2023-05-08T08:57:59.972Z,52.53
2023-05-08T08:59:00.033Z,52.85
2023-05-08T09:00:00.004Z,52.05
2023-05-08T09:00:59.996Z,53.01
2023-05-08T09:01:59.957Z,51.08
2023-05-08T09:03:00.073Z,53.98
2023-05-08T09:04:00.131Z,52.85
2023-05-08T09:04:59.942Z,54.62
2023-05-08T09:05:59.892Z,52.53
2023-05-08T09:06:59.931Z,49.95
2023-05-08T09:07:59.994Z,54.95
2023-05-08T09:08:59.868Z,51.56
2023-05-08T09:09:59.867Z,51.56
2023-05-08T09:10:59.838Z,49.31
2023-05-08T09:11:59.951Z,52.53
2023-05-08T09:13:00.047Z,53.33
2023-05-08T09:13:59.820Z,47.86
2023-05-08T09:14:59.788Z,50.60
2023-05-08T09:15:59.806Z,53.98
2023-05-08T09:16:59.763Z,52.37
2023-05-08T09:17:59.842Z,49.79
2023-05-08T09:18:59.747Z,51.88
2023-05-08T09:19:59.838Z,47.37
2023-05-08T09:20:59.805Z,46.73
2023-05-08T09:21:59.749Z,44.47
2023-05-08T09:22:59.732Z,48.34
2023-05-08T09:23:59.747Z,47.86
2023-05-08T09:24:59.679Z,46.89
2023-05-08T09:25:59.663Z,48.18
2023-05-08T09:26:59.672Z,48.50
2023-05-08T09:27:59.652Z,47.37
2023-05-08T09:28:59.770Z,49.63
2023-05-08T09:29:59.601Z,47.53
2023-05-08T09:30:59.625Z,48.98
2023-05-08T09:31:59.616Z,49.31
2023-05-08T09:32:59.674Z,52.85
2023-05-08T09:33:59.593Z,50.76
2023-05-08T09:34:59.557Z,49.15
2023-05-08T09:35:59.554Z,51.24
2023-05-08T09:36:59.578Z,48.98
2023-05-08T09:37:59.548Z,48.82
2023-05-08T09:38:59.542Z,48.82
2023-05-08T09:39:59.501Z,49.63
2023-05-08T09:40:59.495Z,49.63
2023-05-08T09:41:59.488Z,49.47
2023-05-08T09:42:59.471Z,48.18
2023-05-08T09:43:59.462Z,47.86
2023-05-08T09:44:59.522Z,47.86
2023-05-08T09:45:59.512Z,51.08
2023-05-08T09:46:59.426Z,48.50
2023-05-08T09:47:59.547Z,48.98
2023-05-08T09:48:59.429Z,47.70
2023-05-08T09:49:59.386Z,46.08
2023-05-08T09:50:59.404Z,49.15
2023-05-08T09:51:59.375Z,48.98
2023-05-08T09:52:59.386Z,48.34
2023-05-08T09:53:59.386Z,49.15
2023-05-08T09:54:59.354Z,48.82
2023-05-08T09:55:59.354Z,50.92
2023-05-08T09:57:00.399Z,45.76
2023-05-08T09:57:59.539Z,50.43
2023-05-08T09:58:59.288Z,48.18
2023-05-08T09:59:59.292Z,46.57
2023-05-08T10:00:59.469Z,51.40
2023-05-08T10:01:59.279Z,48.82
2023-05-08T10:02:59.495Z,49.15
2023-05-08T10:03:59.296Z,49.47
2023-05-08T10:04:59.281Z,50.60
2023-05-08T10:05:59.233Z,50.60
2023-05-08T10:06:59.268Z,47.37
2023-05-08T10:07:59.226Z,45.28
2023-05-08T10:08:59.275Z,46.57
2023-05-08T10:09:59.232Z,47.21
2023-05-08T10:10:59.245Z,46.89
2023-05-08T10:11:59.156Z,47.37
2023-05-08T10:12:59.287Z,47.05
2023-05-08T10:13:59.235Z,45.76
2023-05-08T10:14:59.193Z,44.96
2023-05-08T10:15:59.135Z,44.79
2023-05-08T10:16:59.281Z,47.37
2023-05-08T10:17:59.137Z,45.92
2023-05-08T10:18:59.116Z,46.41
2023-05-08T10:19:59.092Z,51.56
2023-05-08T10:20:59.125Z,51.72
2023-05-08T10:21:59.097Z,53.01
2023-05-08T10:22:59.107Z,53.98
2023-05-08T10:23:59.028Z,49.31
2023-05-08T10:24:59.027Z,48.98
2023-05-08T10:25:59.015Z,50.60
2023-05-08T10:27:06.762Z,51.08
2023-05-08T10:28:00.972Z,49.31
2023-05-08T10:28:58.994Z,47.53
2023-05-08T10:29:59.001Z,50.11
2023-05-08T10:30:58.991Z,47.37
2023-05-08T10:31:58.979Z,49.47
2023-05-08T10:32:59.128Z,47.21
2023-05-08T10:33:59.004Z,48.34
2023-05-08T10:34:58.995Z,49.15
2023-05-08T10:35:58.976Z,47.70
2023-05-08T10:36:58.909Z,48.02
2023-05-08T10:37:58.916Z,49.47
2023-05-08T10:38:58.970Z,50.60
2023-05-08T10:39:58.963Z,49.63
2023-05-08T10:40:58.892Z,49.31
2023-05-08T10:41:58.921Z,50.11
2023-05-08T10:42:58.863Z,51.56
2023-05-08T10:44:01.086Z,52.37
2023-05-08T10:44:58.893Z,48.34
2023-05-08T10:45:58.913Z,51.72
2023-05-08T10:47:00.394Z,50.11
2023-05-08T10:47:58.864Z,51.24
2023-05-08T10:48:58.807Z,49.79
2023-05-08T10:49:58.787Z,51.08
2023-05-08T10:50:58.854Z,50.60
2023-05-08T10:51:58.843Z,50.76
2023-05-08T10:52:58.794Z,49.31
2023-05-08T10:53:58.813Z,50.27
2023-05-08T10:54:58.833Z,49.79
2023-05-08T10:55:58.786Z,49.15
2023-05-08T10:56:58.829Z,49.95
2023-05-08T10:57:58.757Z,47.21
2023-05-08T10:58:58.828Z,47.86
2023-05-08T10:59:58.725Z,50.27
2023-05-08T11:00:58.693Z,45.76
2023-05-08T11:01:58.800Z,46.25
2023-05-08T11:02:58.705Z,50.11
2023-05-08T11:03:58.806Z,49.95
2023-05-08T11:04:58.639Z,48.34
2023-05-08T11:05:58.616Z,44.31
2023-05-08T11:06:58.622Z,48.18
2023-05-08T11:07:58.606Z,47.37
2023-05-08T11:09:00.627Z,50.43
2023-05-08T11:09:59.557Z,49.79
2023-05-08T11:10:58.565Z,48.34
2023-05-08T11:11:58.546Z,47.70
2023-05-08T11:12:58.551Z,50.27
2023-05-08T11:13:58.557Z,50.43
2023-05-08T11:14:58.558Z,49.31
2023-05-08T11:15:58.560Z,49.31
2023-05-08T11:16:58.494Z,46.25
2023-05-08T11:17:58.489Z,46.41
2023-05-08T11:18:58.457Z,50.60
2023-05-08T11:19:58.457Z,50.60
2023-05-08T11:20:58.513Z,50.60
2023-05-08T11:21:58.450Z,50.43
2023-05-08T11:22:58.415Z,52.21
2023-05-08T11:23:58.439Z,53.01
2023-05-08T11:24:58.443Z,53.17
2023-05-08T11:25:58.504Z,51.56
2023-05-08T11:26:58.418Z,46.57
2023-05-08T11:27:58.448Z,49.47
2023-05-08T11:28:58.394Z,48.18
2023-05-08T11:29:58.390Z,52.85
2023-05-08T11:30:58.337Z,51.40
2023-05-08T11:31:58.406Z,51.56
2023-05-08T11:32:58.444Z,50.76
2023-05-08T11:33:58.302Z,50.43
2023-05-08T11:34:58.309Z,53.01
2023-05-08T11:35:58.366Z,47.37
2023-05-08T11:36:58.297Z,49.47
2023-05-08T11:37:58.380Z,48.82
2023-05-08T11:38:58.342Z,50.11
2023-05-08T11:39:58.276Z,54.46
2023-05-08T11:40:58.260Z,47.86
2023-05-08T11:41:58.243Z,50.11
2023-05-08T11:42:58.300Z,51.40
2023-05-08T11:43:58.245Z,49.47
2023-05-08T11:44:58.225Z,51.56
2023-05-08T11:45:58.180Z,49.63
2023-05-08T11:46:58.262Z,47.70
2023-05-08T11:47:58.200Z,48.98
2023-05-08T11:48:58.156Z,48.18
2023-05-08T11:49:58.132Z,50.11
2023-05-08T11:50:58.131Z,48.82
2023-05-08T11:51:58.230Z,47.21
2023-05-08T11:52:58.162Z,48.98
2023-05-08T11:53:58.120Z,48.50
2023-05-08T11:54:58.085Z,51.24
2023-05-08T11:55:58.096Z,48.98
2023-05-08T11:56:58.170Z,45.12
2023-05-08T11:57:58.107Z,49.47
2023-05-08T11:58:58.068Z,49.47
2023-05-08T11:59:58.051Z,48.82
2023-05-08T12:00:58.197Z,47.37
2023-05-08T12:02:07.904Z,49.63
2023-05-08T12:03:00.142Z,50.92
2023-05-08T12:03:58.256Z,51.56
2023-05-08T12:04:58.058Z,48.82
2023-05-08T12:05:57.995Z,49.15
2023-05-08T12:06:58.003Z,51.88
2023-05-08T12:07:58.036Z,47.86
2023-05-08T12:08:57.974Z,50.11
2023-05-08T12:09:57.976Z,53.01
2023-05-08T12:10:57.962Z,48.18
2023-05-08T12:11:58.054Z,49.31
2023-05-08T12:12:57.926Z,48.98
2023-05-08T12:13:57.885Z,49.15
2023-05-08T12:14:57.904Z,51.24
2023-05-08T12:15:57.878Z,52.37
2023-05-08T12:16:57.899Z,50.60
2023-05-08T12:17:57.941Z,51.56
2023-05-08T12:18:57.851Z,51.24
2023-05-08T12:19:57.941Z,48.34
2023-05-08T12:20:57.833Z,49.63
2023-05-08T12:21:57.892Z,47.53
2023-05-08T12:22:57.797Z,49.79
2023-05-08T12:23:57.918Z,49.63
2023-05-08T12:24:57.795Z,49.63
2023-05-08T12:25:57.854Z,48.34
2023-05-08T12:26:57.825Z,51.08
2023-05-08T12:27:57.924Z,48.02
2023-05-08T12:28:57.793Z,45.92
2023-05-08T12:29:57.761Z,46.25
2023-05-08T12:30:57.833Z,49.47
2023-05-08T12:31:57.785Z,49.79
2023-05-08T12:32:57.763Z,49.47
2023-05-08T12:33:57.751Z,50.27
2023-05-08T12:34:57.745Z,49.63
2023-05-08T12:35:57.670Z,53.17
2023-05-08T12:36:57.681Z,47.53
2023-05-08T12:37:57.675Z,48.50
2023-05-08T12:38:57.642Z,46.25
2023-05-08T12:39:57.639Z,46.73
2023-05-08T12:40:57.743Z,47.37
2023-05-08T12:41:59.525Z,49.15
2023-05-08T12:42:57.634Z,50.27
2023-05-08T12:43:57.619Z,50.27
2023-05-08T12:44:57.606Z,53.01
2023-05-08T12:45:57.588Z,51.56
2023-05-08T12:46:57.700Z,51.08
2023-05-08T12:47:57.598Z,50.11
2023-05-08T12:48:57.566Z,50.11
2023-05-08T12:49:57.559Z,46.08
2023-05-08T12:50:57.546Z,51.24
2023-05-08T12:51:57.528Z,49.31